METAR Data
IDs: Format: Raw Decoded Include TAF

Data at: 0552 UTC 26 May 2022

EGGD 260520Z AUTO 25015KT 9999 BKN007 OVC021 12/11 Q1021